createdAt,value
2018-09-04T00:00:51.831Z,31.95
2018-09-04T00:03:39.462Z,32.58
2018-09-04T00:06:27.949Z,31.33
2018-09-04T00:12:21.900Z,34.35
2018-09-04T00:15:09.982Z,34.35
2018-09-04T00:17:57.767Z,34.70
2018-09-04T00:20:46.805Z,33.47
2018-09-04T00:23:38.170Z,33.05
2018-09-04T00:29:33.558Z,31.33
2018-09-04T00:35:36.761Z,32.97
2018-09-04T00:41:37.082Z,31.83
2018-09-04T00:47:34.652Z,30.95
2018-09-04T00:50:22.453Z,32.92
2018-09-04T00:56:16.799Z,31.12
2018-09-04T00:59:05.634Z,30.65
2018-09-04T01:01:54.505Z,30.27
2018-09-04T01:04:42.293Z,29.75
2018-09-04T01:07:30.132Z,29.42
2018-09-04T01:13:26.017Z,28.27
2018-09-04T01:19:23.246Z,28.65
2018-09-04T01:22:11.104Z,27.15
2018-09-04T01:24:58.497Z,27.37
2018-09-04T01:27:46.859Z,28.33
2018-09-04T01:30:34.544Z,28.52
2018-09-04T01:36:31.394Z,29.05
2018-09-04T01:42:29.267Z,27.33
2018-09-04T01:48:25.596Z,27.20
2018-09-04T01:51:13.489Z,27.80
2018-09-04T01:54:01.793Z,26.25
2018-09-04T01:56:49.546Z,27.02
2018-09-04T01:59:36.862Z,28.35
2018-09-04T02:02:23.955Z,28.65
2018-09-04T02:05:12.445Z,27.90
2018-09-04T02:08:00.926Z,29.15
2018-09-04T02:10:48.044Z,30.63
2018-09-04T02:13:37.176Z,27.33
2018-09-04T02:16:26.511Z,27.27
2018-09-04T02:19:14.013Z,27.60
2018-09-04T02:22:05.229Z,26.35
2018-09-04T02:25:04.677Z,28.40
2018-09-04T02:27:53.198Z,28.90
2018-09-04T02:30:41.162Z,25.23
2018-09-04T02:33:29.868Z,26.10
2018-09-04T02:36:17.712Z,24.67
2018-09-04T02:39:09.274Z,25.45
2018-09-04T02:41:58.669Z,28.27
2018-09-04T02:44:47.103Z,26.30
2018-09-04T02:47:35.451Z,25.25
2018-09-04T02:50:24.731Z,25.88
2018-09-04T02:53:11.967Z,25.85
2018-09-04T02:59:14.376Z,27.48
2018-09-04T03:02:01.566Z,26.52
2018-09-04T03:07:57.015Z,27.87
2018-09-04T03:10:44.303Z,26.90
2018-09-04T03:13:32.136Z,25.17
2018-09-04T03:16:20.306Z,26.65
2018-09-04T03:19:08.287Z,27.45
2018-09-04T03:21:55.710Z,27.00
2018-09-04T03:24:43.318Z,29.23
2018-09-04T03:27:30.889Z,27.48
2018-09-04T03:36:31.481Z,25.88
2018-09-04T03:39:18.955Z,25.80
2018-09-04T03:42:07.836Z,26.85
2018-09-04T03:48:03.646Z,26.80
2018-09-04T03:53:57.789Z,26.77
2018-09-04T03:56:52.898Z,25.35
2018-09-04T03:59:40.748Z,26.60
2018-09-04T04:02:29.056Z,25.52
2018-09-04T04:05:17.374Z,25.10
2018-09-04T04:08:04.667Z,25.52
2018-09-04T04:11:07.273Z,25.40
2018-09-04T04:13:59.872Z,25.37
2018-09-04T04:22:59.989Z,24.55
2018-09-04T04:25:47.291Z,23.95
2018-09-04T04:28:35.992Z,24.70
2018-09-04T04:31:24.375Z,25.27
2018-09-04T04:34:12.159Z,26.45
2018-09-04T04:37:07.242Z,24.15
2018-09-04T04:39:55.164Z,26.08
2018-09-04T04:42:42.604Z,23.95
2018-09-04T04:45:31.109Z,25.48
2018-09-04T04:48:19.542Z,23.23
2018-09-04T04:54:14.740Z,23.75
2018-09-04T04:57:02.428Z,25.27
2018-09-04T05:00:05.046Z,24.75
2018-09-04T05:02:53.365Z,23.90
2018-09-04T05:05:41.981Z,22.60
2018-09-04T05:08:30.069Z,22.15
2018-09-04T05:11:18.640Z,23.25
2018-09-04T05:14:05.919Z,22.85
2018-09-04T05:16:57.429Z,21.95
2018-09-04T05:19:47.263Z,21.90
2018-09-04T05:22:42.665Z,19.67
2018-09-04T05:25:30.560Z,21.65
2018-09-04T05:28:18.890Z,21.62
2018-09-04T05:31:07.523Z,20.27
2018-09-04T05:33:56.650Z,20.65
2018-09-04T05:39:52.809Z,19.25
2018-09-04T05:42:41.077Z,20.40
2018-09-04T05:45:43.722Z,20.25
2018-09-04T05:48:31.824Z,17.58
2018-09-04T05:51:20.231Z,18.42
2018-09-04T05:54:08.440Z,20.13
2018-09-04T05:56:56.066Z,20.93
2018-09-04T05:59:43.398Z,19.15
2018-09-04T06:02:31.740Z,19.20
2018-09-04T06:05:19.190Z,20.80
2018-09-04T06:08:07.403Z,20.57
2018-09-04T06:10:54.952Z,18.25
2018-09-04T06:13:42.428Z,17.50
2018-09-04T06:16:30.615Z,18.00
2018-09-04T06:19:33.767Z,18.60
2018-09-04T06:22:22.084Z,19.23
2018-09-04T06:25:09.773Z,18.62
2018-09-04T06:27:58.166Z,17.35
2018-09-04T06:30:45.754Z,19.23
2018-09-04T06:36:47.468Z,16.75
2018-09-04T06:39:34.907Z,16.00
2018-09-04T06:42:22.016Z,18.77
2018-09-04T06:45:10.445Z,18.25
2018-09-04T06:51:21.925Z,15.57
2018-09-04T06:54:10.984Z,14.60
2018-09-04T06:56:59.901Z,15.43
2018-09-04T07:18:26.008Z,14.73
2018-09-04T07:21:14.230Z,15.10
2018-09-04T07:27:10.406Z,15.65
2018-09-04T07:36:11.737Z,14.73
2018-09-04T07:42:21.434Z,15.25
2018-09-04T07:48:16.722Z,15.23
2018-09-04T07:51:06.776Z,15.70
2018-09-04T08:03:16.778Z,14.40
2018-09-04T08:15:30.823Z,15.40
2018-09-04T08:24:47.311Z,16.70
2018-09-04T08:27:35.053Z,15.85
2018-09-04T08:30:23.750Z,15.73
2018-09-04T08:36:24.954Z,14.95
2018-09-04T08:39:13.923Z,15.65
2018-09-04T08:42:17.475Z,15.75
2018-09-04T08:45:05.641Z,16.17
2018-09-04T08:54:14.663Z,15.50
2018-09-04T08:57:02.978Z,15.43
2018-09-04T08:59:58.381Z,16.00
2018-09-04T09:05:54.156Z,15.50
2018-09-04T09:08:41.940Z,16.30
2018-09-04T09:11:33.668Z,16.45
2018-09-04T09:17:27.976Z,17.25
2018-09-04T09:20:16.141Z,14.95
2018-09-04T09:23:07.270Z,14.65
2018-09-04T09:25:54.858Z,18.02
2018-09-04T09:31:50.723Z,15.23
2018-09-04T09:37:44.850Z,15.35
2018-09-04T09:40:32.717Z,16.17
2018-09-04T09:43:20.605Z,14.15
2018-09-04T09:46:23.541Z,14.75
2018-09-04T09:49:12.994Z,14.52
2018-09-04T09:52:00.779Z,14.98
2018-09-04T09:54:49.641Z,14.05
2018-09-04T09:57:41.146Z,14.48
2018-09-04T10:00:28.951Z,14.87
2018-09-04T10:03:16.158Z,14.30
2018-09-04T10:06:04.014Z,11.30
2018-09-04T10:08:52.210Z,13.10
2018-09-04T10:11:40.923Z,12.48
2018-09-04T10:14:29.714Z,11.50
2018-09-04T10:17:17.310Z,10.63
2018-09-04T10:20:05.787Z,9.30
2018-09-04T10:22:53.440Z,9.95
2018-09-04T10:25:41.969Z,9.48
2018-09-04T10:28:29.755Z,9.60
2018-09-04T10:31:17.524Z,9.20
2018-09-04T10:34:12.926Z,8.93
2018-09-04T10:37:00.530Z,9.18
2018-09-04T10:39:47.925Z,8.93
2018-09-04T10:42:46.269Z,7.82
2018-09-04T10:45:34.590Z,8.45
2018-09-04T10:48:25.938Z,8.07
2018-09-04T10:51:13.158Z,6.53
2018-09-04T10:54:01.677Z,7.72
2018-09-04T10:56:48.869Z,5.93
2018-09-04T10:59:37.182Z,6.05
2018-09-04T11:02:26.796Z,6.40
2018-09-04T11:05:14.445Z,6.30
2018-09-04T11:08:03.022Z,7.35
2018-09-04T11:10:51.609Z,6.78
2018-09-04T11:13:40.407Z,7.15
2018-09-04T11:16:28.668Z,6.20
2018-09-04T11:19:17.877Z,6.90
2018-09-04T11:22:06.326Z,5.35
2018-09-04T11:25:01.739Z,5.10
2018-09-04T11:27:50.279Z,6.30
2018-09-04T11:30:38.025Z,6.40
2018-09-04T11:33:27.531Z,7.07
2018-09-04T11:36:19.137Z,7.68
2018-09-04T11:39:07.397Z,6.65
2018-09-04T11:45:17.603Z,6.97
2018-09-04T11:48:06.448Z,7.03
2018-09-04T11:51:01.601Z,7.43
2018-09-04T11:53:51.233Z,7.20
2018-09-04T11:56:38.715Z,7.25
2018-09-04T12:08:54.277Z,7.57
2018-09-04T12:11:42.121Z,7.10
2018-09-04T12:14:36.371Z,6.62
2018-09-04T12:20:45.233Z,7.20
2018-09-04T12:23:32.793Z,7.60
2018-09-04T12:29:26.195Z,7.62
2018-09-04T12:32:14.876Z,6.95
2018-09-04T12:41:21.167Z,7.47
2018-09-04T12:44:11.616Z,7.40
2018-09-04T12:46:59.986Z,7.45
2018-09-04T12:49:47.452Z,7.37
2018-09-04T12:52:34.920Z,7.43
2018-09-04T12:55:22.103Z,7.05
2018-09-04T13:01:31.347Z,7.22
2018-09-04T13:04:18.672Z,6.03
2018-09-04T13:07:21.638Z,6.30
2018-09-04T13:10:09.569Z,6.62
2018-09-04T13:25:25.896Z,6.25
2018-09-04T13:28:24.648Z,6.10
2018-09-04T13:31:16.149Z,6.07
2018-09-04T13:34:19.558Z,5.97
2018-09-04T13:37:07.684Z,5.43
2018-09-04T13:39:56.617Z,5.60
2018-09-04T13:42:44.069Z,5.45
2018-09-04T13:45:34.333Z,5.85
2018-09-04T13:51:29.569Z,4.78
2018-09-04T13:54:17.322Z,5.30
2018-09-04T13:57:20.017Z,4.65
2018-09-04T14:00:08.397Z,5.40
2018-09-04T14:03:03.489Z,5.43
2018-09-04T14:05:51.216Z,4.93
2018-09-04T14:08:39.460Z,5.00
2018-09-04T14:11:26.650Z,4.87
2018-09-04T14:14:14.610Z,4.90
2018-09-04T14:17:02.072Z,4.65
2018-09-04T14:19:49.695Z,5.10
2018-09-04T14:22:37.063Z,4.95
2018-09-04T14:25:25.311Z,4.37
2018-09-04T14:28:13.060Z,4.18
2018-09-04T14:31:00.662Z,4.85
2018-09-04T14:36:59.550Z,3.92
2018-09-04T14:39:55.589Z,3.72
2018-09-04T14:42:36.430Z,3.72
2018-09-04T14:45:25.330Z,4.00
2018-09-04T14:48:13.200Z,3.55
2018-09-04T14:54:09.098Z,3.97
2018-09-04T14:56:58.514Z,3.70
2018-09-04T14:59:46.414Z,4.00
2018-09-04T15:02:35.819Z,3.87
2018-09-04T15:05:22.818Z,4.05
2018-09-04T15:08:10.865Z,3.92
2018-09-04T15:10:58.506Z,3.87
2018-09-04T15:13:47.359Z,3.72
2018-09-04T15:16:34.676Z,3.80
2018-09-04T15:22:39.881Z,4.05
2018-09-04T15:25:27.563Z,3.83
2018-09-04T15:31:21.998Z,4.00
2018-09-04T15:34:09.762Z,4.12
2018-09-04T15:36:59.052Z,4.05
2018-09-04T15:39:47.968Z,3.55
2018-09-04T15:45:44.857Z,4.85
2018-09-04T15:48:31.941Z,3.83
2018-09-04T15:54:27.269Z,4.32
2018-09-04T15:57:18.564Z,3.90
2018-09-04T16:00:07.019Z,3.00
2018-09-04T16:06:05.547Z,3.10
2018-09-04T16:08:54.432Z,3.05
2018-09-04T16:11:42.286Z,3.10
2018-09-04T16:14:46.537Z,2.90
2018-09-04T16:20:40.296Z,2.80
2018-09-04T16:23:31.892Z,3.00
2018-09-04T16:26:20.770Z,2.92
2018-09-04T16:29:08.382Z,2.92
2018-09-04T16:35:02.375Z,2.83
2018-09-04T16:37:57.622Z,3.05
2018-09-04T16:40:46.990Z,3.20
2018-09-04T16:43:36.852Z,3.20
2018-09-04T16:46:24.296Z,3.20
2018-09-04T16:49:27.502Z,3.30
2018-09-04T16:52:15.910Z,2.92
2018-09-04T16:55:03.476Z,3.50
2018-09-04T16:57:51.555Z,2.92
2018-09-04T17:00:39.843Z,3.25
2018-09-04T17:09:39.741Z,3.12
2018-09-04T17:12:28.168Z,2.95
2018-09-04T17:15:15.877Z,3.35
2018-09-04T17:21:09.877Z,3.10
2018-09-04T17:27:03.913Z,3.17
2018-09-04T17:33:06.135Z,3.10
2018-09-04T17:39:01.936Z,3.78
2018-09-04T17:41:51.681Z,3.20
2018-09-04T17:44:39.278Z,3.17
2018-09-04T17:47:26.925Z,3.35
2018-09-04T17:50:30.041Z,3.53
2018-09-04T17:56:28.150Z,3.00
2018-09-04T18:05:31.256Z,3.17
2018-09-04T18:08:19.722Z,3.03
2018-09-04T18:11:08.945Z,3.37
2018-09-04T18:13:57.522Z,3.05
2018-09-04T18:16:47.302Z,3.50
2018-09-04T18:28:54.562Z,3.40
2018-09-04T18:31:42.293Z,3.70
2018-09-04T18:34:29.605Z,3.60
2018-09-04T18:37:17.622Z,3.70
2018-09-04T18:40:05.534Z,3.30
2018-09-04T18:42:53.407Z,3.30
2018-09-04T18:45:43.535Z,3.60
2018-09-04T19:07:18.774Z,3.40
2018-09-04T19:10:07.499Z,3.40
2018-09-04T19:12:58.203Z,3.53
2018-09-04T19:16:07.417Z,3.75
2018-09-04T19:18:57.341Z,3.55
2018-09-04T19:21:48.877Z,3.40
2018-09-04T19:24:44.158Z,3.60
2018-09-04T19:36:56.750Z,3.35
2018-09-04T19:42:50.660Z,3.62
2018-09-04T19:45:39.318Z,3.20
2018-09-04T19:48:29.295Z,4.00
2018-09-04T19:54:31.165Z,3.45
2018-09-04T20:00:33.813Z,3.70
2018-09-04T20:03:21.364Z,3.70
2018-09-04T20:06:17.437Z,3.50
2018-09-04T20:09:08.519Z,3.58
2018-09-04T20:15:07.761Z,3.17
2018-09-04T20:17:55.243Z,3.20
2018-09-04T20:20:57.078Z,3.50
2018-09-04T20:26:55.228Z,3.37
2018-09-04T20:32:59.938Z,3.20
2018-09-04T20:35:54.137Z,3.53
2018-09-04T20:38:52.295Z,3.35
2018-09-04T20:44:48.770Z,3.47
2018-09-04T20:47:42.587Z,3.40
2018-09-04T20:53:36.563Z,3.08
2018-09-04T20:56:26.177Z,3.55
2018-09-04T21:13:40.119Z,3.58
2018-09-04T21:16:30.770Z,3.58
2018-09-04T21:19:18.867Z,3.67
2018-09-04T21:28:22.142Z,4.00
2018-09-04T21:31:10.273Z,3.67
2018-09-04T21:33:58.207Z,3.58
2018-09-04T21:49:43.174Z,3.67
2018-09-04T21:52:31.438Z,4.07
2018-09-04T21:58:25.602Z,3.53
2018-09-04T22:01:14.010Z,3.75
2018-09-04T22:07:15.499Z,3.92
2018-09-04T22:10:02.884Z,3.45
2018-09-04T22:12:50.451Z,3.40
2018-09-04T22:22:06.499Z,3.90
2018-09-04T22:24:57.880Z,3.78
2018-09-04T22:27:45.379Z,4.00
2018-09-04T22:30:33.005Z,3.93
2018-09-04T22:33:20.446Z,3.50
2018-09-04T22:36:08.450Z,3.55
2018-09-04T23:01:15.669Z,4.28
2018-09-04T23:04:04.864Z,4.03
2018-09-04T23:31:53.815Z,4.32
2018-09-04T23:34:41.399Z,4.55
2018-09-04T23:37:32.890Z,4.37
